createdAt,value
2023-03-27T00:00:13.330Z,7.40
2023-03-27T00:03:02.021Z,7.39
2023-03-27T00:05:31.337Z,7.40
2023-03-27T00:08:01.679Z,7.39
2023-03-27T00:10:31.066Z,7.39
2023-03-27T00:12:59.580Z,7.39
2023-03-27T00:15:27.896Z,7.38
2023-03-27T00:17:58.791Z,7.38
2023-03-27T00:20:27.298Z,7.38
2023-03-27T00:22:56.459Z,7.39
2023-03-27T00:25:27.901Z,7.39
2023-03-27T00:27:58.560Z,7.38
2023-03-27T00:30:29.349Z,7.38
2023-03-27T00:32:58.817Z,7.37
2023-03-27T00:35:29.391Z,7.37
2023-03-27T00:37:58.945Z,7.37
2023-03-27T00:40:27.312Z,7.37
2023-03-27T00:42:57.830Z,7.37
2023-03-27T00:45:33.658Z,7.37
2023-03-27T00:48:08.251Z,7.36
2023-03-27T00:50:41.583Z,7.34
2023-03-27T00:53:18.985Z,7.32
2023-03-27T00:55:51.666Z,7.31
2023-03-27T00:58:26.279Z,7.30
2023-03-27T01:00:57.355Z,7.29
2023-03-27T01:03:31.616Z,7.28
2023-03-27T01:06:02.288Z,7.28
2023-03-27T01:08:34.493Z,7.28
2023-03-27T01:11:21.943Z,7.29
2023-03-27T01:14:37.476Z,7.29
2023-03-27T01:17:40.888Z,7.29
2023-03-27T01:20:42.394Z,7.29
2023-03-27T01:23:58.995Z,7.29
2023-03-27T01:26:49.075Z,7.29
2023-03-27T01:29:53.452Z,7.29
2023-03-27T01:32:42.169Z,7.30
2023-03-27T01:35:25.536Z,7.30
2023-03-27T01:38:08.991Z,7.30
2023-03-27T01:41:10.594Z,7.32
2023-03-27T01:43:57.848Z,7.33
2023-03-27T01:46:49.316Z,7.34
2023-03-27T01:49:22.938Z,7.34
2023-03-27T01:51:58.529Z,7.36
2023-03-27T01:54:34.746Z,7.36
2023-03-27T01:57:20.697Z,7.37
2023-03-27T02:00:17.597Z,7.38
2023-03-27T02:03:09.488Z,7.38
2023-03-27T02:05:51.414Z,7.38
2023-03-27T02:08:27.282Z,7.39
2023-03-27T02:10:58.984Z,7.38
2023-03-27T02:13:37.122Z,7.39
2023-03-27T02:16:08.623Z,7.38
2023-03-27T02:18:46.076Z,7.38
2023-03-27T02:21:15.916Z,7.38
2023-03-27T02:23:44.840Z,7.37
2023-03-27T02:26:13.556Z,7.38
2023-03-27T02:29:27.889Z,7.37
2023-03-27T02:32:22.169Z,7.37
2023-03-27T02:35:03.343Z,7.34
2023-03-27T02:37:41.642Z,7.34
2023-03-27T02:44:57.309Z,7.35
2023-03-27T02:48:14.748Z,7.31
2023-03-27T02:51:25.197Z,7.29
2023-03-27T02:54:01.158Z,7.27
2023-03-27T02:56:38.685Z,7.25
2023-03-27T02:59:13.089Z,7.25
2023-03-27T03:01:42.219Z,7.25
2023-03-27T03:04:25.243Z,7.24
2023-03-27T03:06:54.192Z,7.23
2023-03-27T03:09:24.828Z,7.22
2023-03-27T03:11:54.463Z,7.19
2023-03-27T03:14:31.744Z,7.17
2023-03-27T03:17:00.441Z,7.16
2023-03-27T03:19:28.812Z,7.16
2023-03-27T03:21:57.153Z,7.16
2023-03-27T03:24:25.485Z,7.14
2023-03-27T03:26:53.814Z,7.12
2023-03-27T03:29:22.128Z,7.11
2023-03-27T03:31:50.458Z,7.10
2023-03-27T03:34:19.102Z,7.09
2023-03-27T03:36:50.373Z,7.08
2023-03-27T03:39:19.037Z,7.07
2023-03-27T03:41:47.904Z,7.04
2023-03-27T03:44:16.346Z,7.00
2023-03-27T03:46:44.701Z,6.97
2023-03-27T03:49:13.125Z,6.92
2023-03-27T03:51:41.504Z,6.88
2023-03-27T03:54:10.008Z,6.84
2023-03-27T03:56:41.544Z,6.80
2023-03-27T03:59:12.015Z,6.73
2023-03-27T04:01:40.995Z,6.67
2023-03-27T04:04:09.344Z,6.61
2023-03-27T04:06:37.944Z,6.55
2023-03-27T04:09:07.071Z,6.48
2023-03-27T04:11:35.405Z,6.41
2023-03-27T04:14:03.695Z,6.35
2023-03-27T04:16:32.102Z,6.27
2023-03-27T04:19:01.155Z,6.18
2023-03-27T04:21:29.916Z,6.10
2023-03-27T04:24:02.675Z,6.03
2023-03-27T04:26:31.349Z,5.92
2023-03-27T04:28:59.680Z,5.83
2023-03-27T04:31:30.353Z,5.76
2023-03-27T04:34:00.048Z,5.68
2023-03-27T04:36:29.543Z,5.59
2023-03-27T04:38:59.768Z,5.53
2023-03-27T04:41:29.688Z,5.44
2023-03-27T04:43:58.158Z,5.34
2023-03-27T04:46:26.599Z,5.24
2023-03-27T04:48:56.460Z,5.15
2023-03-27T04:51:26.677Z,5.06
2023-03-27T04:53:56.458Z,4.95
2023-03-27T04:56:25.017Z,4.83
2023-03-27T04:58:53.363Z,4.69
2023-03-27T05:01:23.234Z,4.53
2023-03-27T05:03:53.571Z,4.38
2023-03-27T05:06:23.912Z,4.24
2023-03-27T05:08:52.296Z,4.09
2023-03-27T05:11:21.406Z,3.96
2023-03-27T05:13:50.145Z,3.84
2023-03-27T05:16:18.625Z,3.75
2023-03-27T05:18:47.489Z,3.67
2023-03-27T05:21:15.980Z,3.61
2023-03-27T05:23:44.414Z,3.55
2023-03-27T05:26:12.927Z,3.47
2023-03-27T05:28:41.304Z,3.40
2023-03-27T05:31:10.752Z,3.30
2023-03-27T05:33:39.958Z,3.21
2023-03-27T05:36:09.950Z,3.14
2023-03-27T05:38:39.522Z,3.08
2023-03-27T05:41:10.216Z,3.02
2023-03-27T05:43:38.746Z,2.94
2023-03-27T05:46:07.766Z,2.86
2023-03-27T05:48:36.713Z,2.79
2023-03-27T05:51:06.632Z,2.70
2023-03-27T05:53:39.280Z,2.60
2023-03-27T05:56:08.484Z,2.50
2023-03-27T05:58:36.942Z,2.41
2023-03-27T06:01:06.011Z,2.30
2023-03-27T06:03:38.673Z,2.21
2023-03-27T06:06:13.090Z,2.12
2023-03-27T06:08:41.540Z,2.04
2023-03-27T06:11:15.389Z,1.95
2023-03-27T06:13:44.268Z,1.86
2023-03-27T06:16:13.015Z,1.77
2023-03-27T06:18:41.855Z,1.68
2023-03-27T06:21:10.514Z,1.59
2023-03-27T06:23:39.323Z,1.53
2023-03-27T06:26:07.667Z,1.47
2023-03-27T06:28:36.904Z,1.42
2023-03-27T06:31:06.714Z,1.38
2023-03-27T06:33:35.222Z,1.34
2023-03-27T06:36:05.385Z,1.29
2023-03-27T06:38:33.847Z,1.26
2023-03-27T06:41:03.210Z,1.23
2023-03-27T06:43:31.960Z,1.23
2023-03-27T06:46:00.516Z,1.23
2023-03-27T06:48:29.593Z,1.24
2023-03-27T07:01:44.033Z,1.29
2023-03-27T07:04:13.192Z,1.29
2023-03-27T07:06:41.735Z,1.30
2023-03-27T07:09:10.052Z,1.30
2023-03-27T07:11:39.201Z,1.32
2023-03-27T07:14:09.513Z,1.35
2023-03-27T07:16:38.229Z,1.33
2023-03-27T07:19:06.779Z,1.31
2023-03-27T07:21:35.288Z,1.30
2023-03-27T07:24:04.307Z,1.27
2023-03-27T07:26:34.336Z,1.25
2023-03-27T07:29:03.951Z,1.22
2023-03-27T07:31:51.656Z,1.21
2023-03-27T07:34:21.833Z,1.20
2023-03-27T07:36:50.676Z,1.21
2023-03-27T07:39:22.787Z,1.22
2023-03-27T07:41:54.504Z,1.23
2023-03-27T07:44:43.583Z,1.26
2023-03-27T07:47:15.318Z,1.31
2023-03-27T07:49:43.744Z,1.37
2023-03-27T07:52:13.258Z,1.47
2023-03-27T07:54:43.194Z,1.58
2023-03-27T07:57:12.090Z,1.72
2023-03-27T07:59:42.533Z,1.84
2023-03-27T08:02:15.985Z,1.91
2023-03-27T08:04:45.358Z,1.93
2023-03-27T08:07:21.548Z,1.96
2023-03-27T08:09:53.959Z,1.97
2023-03-27T08:12:44.450Z,1.97
2023-03-27T08:15:12.927Z,2.02
2023-03-27T08:17:41.875Z,2.07
2023-03-27T08:20:15.177Z,2.12
2023-03-27T08:22:44.592Z,2.17
2023-03-27T08:25:13.568Z,2.20
2023-03-27T08:28:00.570Z,2.27
2023-03-27T08:30:31.692Z,2.34
2023-03-27T08:33:02.612Z,2.42
2023-03-27T08:35:31.211Z,2.46
2023-03-27T08:37:59.735Z,2.48
2023-03-27T08:40:34.792Z,2.46
2023-03-27T08:43:12.555Z,2.45
2023-03-27T08:46:10.660Z,2.45
2023-03-27T08:48:59.717Z,2.46
2023-03-27T08:51:40.452Z,2.48
2023-03-27T08:54:22.366Z,2.48
2023-03-27T08:56:51.655Z,2.49
2023-03-27T08:59:26.558Z,2.49
2023-03-27T09:02:39.257Z,2.51
2023-03-27T09:05:18.620Z,2.56
2023-03-27T09:08:32.645Z,2.62
2023-03-27T09:11:27.945Z,2.65
2023-03-27T09:13:56.615Z,2.66
2023-03-27T09:16:37.901Z,2.69
2023-03-27T09:19:21.638Z,2.67
2023-03-27T09:22:06.669Z,2.67
2023-03-27T09:24:42.018Z,2.69
2023-03-27T09:27:20.823Z,2.72
2023-03-27T09:30:15.048Z,2.76
2023-03-27T09:32:43.711Z,2.76
2023-03-27T09:35:18.097Z,2.77
2023-03-27T09:37:58.673Z,2.77
2023-03-27T09:40:45.740Z,2.82
2023-03-27T09:43:28.325Z,2.86
2023-03-27T09:45:59.210Z,2.90
2023-03-27T09:48:47.365Z,2.92
2023-03-27T09:51:42.943Z,2.93
2023-03-27T09:54:17.591Z,2.98
2023-03-27T09:57:03.409Z,2.98
2023-03-27T09:59:40.332Z,2.99
2023-03-27T10:02:23.076Z,2.98
2023-03-27T10:05:24.836Z,3.00
2023-03-27T10:07:53.277Z,3.02
2023-03-27T10:10:21.796Z,3.03
2023-03-27T10:12:59.691Z,3.04
2023-03-27T10:15:38.989Z,3.05
2023-03-27T10:18:30.476Z,3.06
2023-03-27T10:21:14.163Z,3.08
2023-03-27T10:23:49.838Z,3.11
2023-03-27T10:26:26.541Z,3.12
2023-03-27T10:29:07.039Z,3.14
2023-03-27T10:31:39.918Z,3.19
2023-03-27T10:34:39.923Z,3.27
2023-03-27T10:37:34.208Z,3.35
2023-03-27T10:40:09.468Z,3.40
2023-03-27T10:42:38.068Z,3.44
2023-03-27T10:45:07.814Z,3.52
2023-03-27T10:47:36.633Z,3.60
2023-03-27T10:50:23.133Z,3.68
2023-03-27T10:53:20.609Z,3.68
2023-03-27T10:56:16.862Z,3.63
2023-03-27T10:59:38.374Z,3.61
2023-03-27T11:02:30.718Z,3.66
2023-03-27T11:05:08.278Z,3.70
2023-03-27T11:08:49.166Z,3.73
2023-03-27T11:11:33.512Z,3.77
2023-03-27T11:14:10.785Z,3.77
2023-03-27T11:16:45.966Z,3.82
2023-03-27T11:19:43.785Z,3.97
2023-03-27T11:22:26.492Z,4.21
2023-03-27T11:25:07.578Z,4.47
2023-03-27T11:27:49.912Z,4.73
2023-03-27T11:30:56.237Z,4.95
2023-03-27T11:33:54.488Z,5.22
2023-03-27T11:36:30.159Z,5.39
2023-03-27T11:39:32.355Z,5.49
2023-03-27T11:42:09.446Z,5.55
2023-03-27T11:44:37.825Z,5.55
2023-03-27T11:47:18.807Z,5.54
2023-03-27T11:50:34.104Z,5.50
2023-03-27T11:53:10.012Z,5.42
2023-03-27T11:56:26.806Z,5.30
2023-03-27T11:58:58.005Z,5.25
2023-03-27T12:01:40.784Z,5.27
2023-03-27T12:04:36.899Z,5.30
2023-03-27T12:07:35.876Z,5.42
2023-03-27T12:10:39.315Z,5.65
2023-03-27T12:13:40.662Z,5.68
2023-03-27T12:16:28.687Z,5.63
2023-03-27T12:19:27.437Z,5.50
2023-03-27T12:22:42.266Z,5.41
2023-03-27T12:26:22.384Z,5.37
2023-03-27T12:29:23.375Z,5.36
2023-03-27T12:32:08.060Z,5.36
2023-03-27T12:35:00.725Z,5.35
2023-03-27T12:37:47.685Z,5.28
2023-03-27T12:40:40.687Z,5.30
2023-03-27T12:43:21.408Z,5.49
2023-03-27T12:46:24.370Z,5.82
2023-03-27T12:49:08.237Z,5.91
2023-03-27T12:51:51.136Z,5.87
2023-03-27T12:54:19.473Z,5.83
2023-03-27T12:57:20.601Z,5.85
2023-03-27T12:59:49.002Z,6.03
2023-03-27T13:03:05.194Z,6.08
2023-03-27T13:05:48.702Z,6.11
2023-03-27T13:08:50.987Z,6.21
2023-03-27T13:12:16.189Z,6.29
2023-03-27T13:15:09.140Z,6.33
2023-03-27T13:17:56.262Z,6.29
2023-03-27T13:20:48.486Z,6.21
2023-03-27T13:23:59.620Z,6.16
2023-03-27T13:27:02.699Z,6.44
2023-03-27T13:29:34.148Z,7.25
2023-03-27T13:32:30.974Z,7.88
2023-03-27T13:35:19.476Z,8.24
2023-03-27T13:37:50.880Z,8.09
2023-03-27T13:40:30.991Z,7.95
2023-03-27T13:43:22.216Z,7.82
2023-03-27T13:46:01.431Z,8.23
2023-03-27T13:49:10.392Z,8.81
2023-03-27T13:52:05.397Z,9.15
2023-03-27T13:55:04.705Z,9.09
2023-03-27T13:58:17.977Z,8.75
2023-03-27T14:01:13.478Z,8.27
2023-03-27T14:04:39.362Z,7.89
2023-03-27T14:07:42.156Z,7.59
2023-03-27T14:10:28.993Z,7.39
2023-03-27T14:13:48.036Z,7.23
2023-03-27T14:16:40.822Z,6.96
2023-03-27T14:19:34.472Z,6.75
2023-03-27T14:22:14.472Z,6.61
2023-03-27T14:24:52.459Z,6.55
2023-03-27T14:36:49.859Z,7.27
2023-03-27T14:39:27.841Z,8.04
2023-03-27T14:42:01.480Z,8.21
2023-03-27T14:44:32.326Z,8.22
2023-03-27T14:47:10.032Z,8.29
2023-03-27T14:49:48.039Z,9.05
2023-03-27T14:52:30.824Z,9.26
2023-03-27T14:55:02.881Z,9.05
2023-03-27T14:57:32.160Z,8.74
2023-03-27T15:00:01.165Z,8.44
2023-03-27T15:02:35.023Z,8.18
2023-03-27T15:05:18.255Z,7.97
2023-03-27T15:07:49.226Z,7.83
2023-03-27T15:10:22.664Z,7.77
2023-03-27T15:12:51.927Z,8.15
2023-03-27T15:15:43.042Z,9.54
2023-03-27T15:18:49.878Z,11.17
2023-03-27T15:21:39.168Z,12.51
2023-03-27T15:24:16.864Z,13.37
2023-03-27T15:26:48.286Z,14.12
2023-03-27T15:29:39.367Z,14.70
2023-03-27T15:32:12.536Z,15.24
2023-03-27T15:34:49.029Z,15.47
2023-03-27T15:37:24.394Z,15.40
2023-03-27T15:40:36.936Z,15.88
2023-03-27T15:43:14.571Z,16.43
2023-03-27T15:46:12.433Z,16.69
2023-03-27T15:48:45.858Z,16.95
2023-03-27T15:51:20.178Z,17.28
2023-03-27T15:53:55.749Z,17.55
2023-03-27T15:56:42.836Z,17.58
2023-03-27T15:59:15.453Z,17.56
2023-03-27T16:02:03.635Z,17.41
2023-03-27T16:05:02.306Z,17.27
2023-03-27T16:07:48.406Z,16.91
2023-03-27T16:10:32.945Z,16.60
2023-03-27T16:13:04.126Z,16.71
2023-03-27T16:15:41.521Z,16.89
2023-03-27T16:18:28.038Z,17.27
2023-03-27T16:21:15.268Z,17.49
2023-03-27T16:23:44.340Z,17.63
2023-03-27T16:26:18.578Z,17.83
2023-03-27T16:28:47.446Z,17.95
2023-03-27T16:31:19.472Z,18.05
2023-03-27T16:33:48.069Z,18.04
2023-03-27T16:36:20.749Z,17.91
2023-03-27T16:38:49.681Z,17.88
2023-03-27T16:41:18.495Z,17.60
2023-03-27T16:43:46.804Z,16.94
2023-03-27T16:46:25.503Z,16.10
2023-03-27T16:49:00.031Z,14.81
2023-03-27T16:51:29.951Z,13.45
2023-03-27T16:53:58.578Z,12.37
2023-03-27T16:56:27.261Z,11.52
2023-03-27T16:58:57.296Z,10.78
2023-03-27T17:01:26.907Z,10.07
2023-03-27T17:03:55.756Z,9.45
2023-03-27T17:06:24.083Z,8.86
2023-03-27T17:08:55.727Z,8.36
2023-03-27T17:11:24.739Z,7.85
2023-03-27T17:13:53.893Z,7.41
2023-03-27T17:16:22.392Z,7.04
2023-03-27T17:18:52.121Z,6.71
2023-03-27T17:21:20.831Z,6.41
2023-03-27T17:23:49.520Z,6.13
2023-03-27T17:26:54.448Z,5.85
2023-03-27T17:29:22.983Z,5.55
2023-03-27T17:31:52.129Z,5.31
2023-03-27T17:34:20.676Z,5.11
2023-03-27T17:36:54.297Z,4.90
2023-03-27T17:39:27.691Z,4.70
2023-03-27T17:41:55.951Z,4.52
2023-03-27T17:44:24.344Z,4.37
2023-03-27T17:46:52.924Z,4.21
2023-03-27T17:49:21.524Z,4.08
2023-03-27T17:51:50.229Z,3.95
2023-03-27T17:54:19.019Z,3.83
2023-03-27T17:56:47.704Z,3.71
2023-03-27T17:59:16.143Z,3.61
2023-03-27T18:01:45.838Z,3.51
2023-03-27T18:04:14.238Z,3.43
2023-03-27T18:06:42.612Z,3.33
2023-03-27T18:09:11.065Z,3.24
2023-03-27T18:11:39.344Z,3.15
2023-03-27T18:14:07.807Z,3.08
2023-03-27T18:16:36.160Z,3.00
2023-03-27T18:19:04.551Z,2.93
2023-03-27T18:21:32.929Z,2.86
2023-03-27T18:24:01.346Z,2.80
2023-03-27T18:26:29.725Z,2.74
2023-03-27T18:28:58.101Z,2.67
2023-03-27T18:31:27.435Z,2.61
2023-03-27T18:33:56.945Z,2.57
2023-03-27T18:36:25.740Z,2.53
2023-03-27T18:38:54.385Z,2.50
2023-03-27T18:41:24.461Z,2.47
2023-03-27T18:43:52.910Z,2.44
2023-03-27T18:46:21.531Z,2.42
2023-03-27T18:48:50.168Z,2.40
2023-03-27T18:51:18.779Z,2.39
2023-03-27T18:53:50.409Z,2.36
2023-03-27T18:56:18.849Z,2.32
2023-03-27T18:58:47.326Z,2.28
2023-03-27T19:01:16.855Z,2.25
2023-03-27T19:03:45.259Z,2.22
2023-03-27T19:06:13.686Z,2.19
2023-03-27T19:08:43.769Z,2.17
2023-03-27T19:11:12.168Z,2.15
2023-03-27T19:13:40.820Z,2.13
2023-03-27T19:16:13.821Z,2.11
2023-03-27T19:18:43.870Z,2.08
2023-03-27T19:21:12.313Z,2.06
2023-03-27T19:23:40.815Z,2.02
2023-03-27T19:26:12.885Z,1.94
2023-03-27T19:28:43.231Z,1.87
2023-03-27T19:31:12.548Z,1.81
2023-03-27T19:33:43.988Z,1.75
2023-03-27T19:36:12.457Z,1.68
2023-03-27T19:38:41.137Z,1.62
2023-03-27T19:41:11.316Z,1.55
2023-03-27T19:43:39.768Z,1.49
2023-03-27T19:46:16.170Z,1.44
2023-03-27T19:48:47.553Z,1.37
2023-03-27T19:51:16.170Z,1.30
2023-03-27T19:53:44.506Z,1.24
2023-03-27T19:56:12.930Z,1.16
2023-03-27T19:58:41.242Z,1.09
2023-03-27T20:01:10.023Z,1.04
2023-03-27T20:03:40.238Z,1.00
2023-03-27T20:06:13.313Z,0.97
2023-03-27T20:08:43.153Z,0.94
2023-03-27T20:11:11.611Z,0.90
2023-03-27T20:13:52.928Z,0.88
2023-03-27T20:16:27.338Z,0.85
2023-03-27T20:19:04.608Z,0.83
2023-03-27T20:21:40.326Z,0.80
2023-03-27T20:24:11.798Z,0.78
2023-03-27T20:26:42.092Z,0.75
2023-03-27T20:29:17.317Z,0.72
2023-03-27T20:31:46.686Z,0.68
2023-03-27T20:34:19.136Z,0.65
2023-03-27T20:36:48.093Z,0.64
2023-03-27T20:39:16.600Z,0.65
2023-03-27T20:41:46.960Z,0.67
2023-03-27T20:44:15.959Z,0.69
2023-03-27T20:46:52.039Z,0.68
2023-03-27T20:51:59.267Z,0.68
2023-03-27T20:54:28.714Z,0.66
2023-03-27T20:56:57.110Z,0.64
2023-03-27T20:59:25.771Z,0.62
2023-03-27T21:01:54.388Z,0.59
2023-03-27T21:04:25.600Z,0.58
2023-03-27T21:06:55.093Z,0.57
2023-03-27T21:09:25.887Z,0.57
2023-03-27T21:11:55.897Z,0.57
2023-03-27T21:14:24.548Z,0.58
2023-03-27T21:16:53.249Z,0.60
2023-03-27T21:19:21.837Z,0.60
2023-03-27T21:21:50.428Z,0.62
2023-03-27T21:24:19.572Z,0.62
2023-03-27T21:26:48.007Z,0.61
2023-03-27T21:29:16.371Z,0.61
2023-03-27T21:31:44.726Z,0.59
2023-03-27T21:34:13.128Z,0.57
2023-03-27T21:36:41.669Z,0.55
2023-03-27T21:39:10.217Z,0.54
2023-03-27T21:41:38.783Z,0.51
2023-03-27T21:44:07.129Z,0.49
2023-03-27T21:46:35.777Z,0.48
2023-03-27T21:49:04.180Z,0.45
2023-03-27T21:51:32.521Z,0.42
2023-03-27T21:54:00.830Z,0.40
2023-03-27T21:56:29.207Z,0.37
2023-03-27T21:58:57.676Z,0.35
2023-03-27T22:01:26.282Z,0.33
2023-03-27T22:03:55.185Z,0.33
2023-03-27T22:06:23.568Z,0.33
2023-03-27T22:08:51.870Z,0.33
2023-03-27T22:11:20.615Z,0.31
2023-03-27T22:13:49.135Z,0.29
2023-03-27T22:16:18.164Z,0.27
2023-03-27T22:18:46.809Z,0.25
2023-03-27T22:21:19.267Z,0.23
2023-03-27T22:23:50.730Z,0.22
2023-03-27T22:26:22.680Z,0.21
2023-03-27T22:28:52.615Z,0.20
2023-03-27T22:31:22.897Z,0.19
2023-03-27T22:33:51.842Z,0.19
2023-03-27T22:36:20.644Z,0.18
2023-03-27T22:38:49.047Z,0.19
2023-03-27T22:41:17.989Z,0.20
2023-03-27T22:43:49.210Z,0.20
2023-03-27T22:46:22.408Z,0.22
2023-03-27T22:48:56.063Z,0.22
2023-03-27T22:51:27.326Z,0.22
2023-03-27T22:53:55.935Z,0.23
2023-03-27T22:56:24.581Z,0.24
2023-03-27T22:58:53.230Z,0.25
2023-03-27T23:01:21.623Z,0.26
2023-03-27T23:03:50.054Z,0.27
2023-03-27T23:06:22.292Z,0.28
2023-03-27T23:08:51.521Z,0.28
2023-03-27T23:11:20.466Z,0.28
2023-03-27T23:13:48.978Z,0.28
2023-03-27T23:16:17.370Z,0.28
2023-03-27T23:18:45.813Z,0.29
2023-03-27T23:21:17.694Z,0.28
2023-03-27T23:23:46.514Z,0.29
2023-03-27T23:26:15.592Z,0.29
2023-03-27T23:28:44.043Z,0.30
2023-03-27T23:31:21.612Z,0.31
2023-03-27T23:33:51.175Z,0.32
2023-03-27T23:36:23.861Z,0.32
2023-03-27T23:38:53.394Z,0.33
2023-03-27T23:41:22.084Z,0.33
2023-03-27T23:43:50.980Z,0.34
2023-03-27T23:46:19.441Z,0.33
2023-03-27T23:48:47.781Z,0.33
2023-03-27T23:51:17.200Z,0.33
2023-03-27T23:53:45.724Z,0.34
2023-03-27T23:56:14.189Z,0.33
2023-03-27T23:58:42.990Z,0.34
